sensor_id;sensor_type;location;lat;lon;timestamp;P1;durP1;ratioP1;P2;durP2;ratioP2
7495;SDS011;3789;47.064;15.482;2023-08-06T00:01:04;2.88;;;2.00;;
7495;SDS011;3789;47.064;15.482;2023-08-06T00:03:37;2.22;;;2.03;;
7495;SDS011;3789;47.064;15.482;2023-08-06T00:08:55;2.30;;;2.00;;
7495;SDS011;3789;47.064;15.482;2023-08-06T00:11:24;2.30;;;2.10;;
7495;SDS011;3789;47.064;15.482;2023-08-06T00:13:57;3.80;;;3.50;;
7495;SDS011;3789;47.064;15.482;2023-08-06T00:16:28;6.35;;;4.53;;
7495;SDS011;3789;47.064;15.482;2023-08-06T00:18:57;3.73;;;3.43;;
7495;SDS011;3789;47.064;15.482;2023-08-06T00:21:26;5.33;;;3.73;;
7495;SDS011;3789;47.064;15.482;2023-08-06T00:23:54;4.70;;;4.10;;
7495;SDS011;3789;47.064;15.482;2023-08-06T00:26:31;4.10;;;3.70;;
7495;SDS011;3789;47.064;15.482;2023-08-06T00:29:04;4.38;;;3.92;;
7495;SDS011;3789;47.064;15.482;2023-08-06T00:31:33;3.73;;;3.43;;
7495;SDS011;3789;47.064;15.482;2023-08-06T00:34:01;3.60;;;3.30;;
7495;SDS011;3789;47.064;15.482;2023-08-06T00:36:35;3.87;;;3.03;;
7495;SDS011;3789;47.064;15.482;2023-08-06T00:39:12;3.70;;;3.30;;
7495;SDS011;3789;47.064;15.482;2023-08-06T00:41:45;4.53;;;3.30;;
7495;SDS011;3789;47.064;15.482;2023-08-06T00:44:23;5.20;;;4.40;;
7495;SDS011;3789;47.064;15.482;2023-08-06T00:46:52;4.53;;;4.13;;
7495;SDS011;3789;47.064;15.482;2023-08-06T00:49:25;6.73;;;4.90;;
7495;SDS011;3789;47.064;15.482;2023-08-06T00:51:59;4.77;;;4.30;;
7495;SDS011;3789;47.064;15.482;2023-08-06T00:54:37;6.00;;;5.40;;
7495;SDS011;3789;47.064;15.482;2023-08-06T00:57:06;7.33;;;5.13;;
7495;SDS011;3789;47.064;15.482;2023-08-06T00:59:44;6.43;;;4.80;;
7495;SDS011;3789;47.064;15.482;2023-08-06T01:02:19;4.00;;;3.70;;
7495;SDS011;3789;47.064;15.482;2023-08-06T01:04:48;30.20;;;6.90;;
7495;SDS011;3789;47.064;15.482;2023-08-06T01:07:35;4.57;;;4.07;;
7495;SDS011;3789;47.064;15.482;2023-08-06T01:14:08;4.50;;;4.10;;
7495;SDS011;3789;47.064;15.482;2023-08-06T01:17:19;4.40;;;4.00;;
7495;SDS011;3789;47.064;15.482;2023-08-06T01:20:06;4.60;;;4.00;;
7495;SDS011;3789;47.064;15.482;2023-08-06T01:22:43;4.93;;;4.53;;
7495;SDS011;3789;47.064;15.482;2023-08-06T01:25:14;5.77;;;5.00;;
7495;SDS011;3789;47.064;15.482;2023-08-06T01:27:50;4.63;;;4.23;;
7495;SDS011;3789;47.064;15.482;2023-08-06T01:30:31;4.70;;;4.23;;
7495;SDS011;3789;47.064;15.482;2023-08-06T01:33:10;5.37;;;4.10;;
7495;SDS011;3789;47.064;15.482;2023-08-06T01:35:47;4.83;;;3.43;;
7495;SDS011;3789;47.064;15.482;2023-08-06T01:38:38;3.77;;;2.90;;
7495;SDS011;3789;47.064;15.482;2023-08-06T01:41:07;2.80;;;2.27;;
7495;SDS011;3789;47.064;15.482;2023-08-06T01:43:36;2.40;;;2.20;;
7495;SDS011;3789;47.064;15.482;2023-08-06T01:46:03;1.93;;;1.63;;
7495;SDS011;3789;47.064;15.482;2023-08-06T01:48:33;2.08;;;1.70;;
7495;SDS011;3789;47.064;15.482;2023-08-06T01:51:07;1.90;;;1.80;;
7495;SDS011;3789;47.064;15.482;2023-08-06T01:53:36;1.83;;;1.70;;
7495;SDS011;3789;47.064;15.482;2023-08-06T01:56:10;2.03;;;1.60;;
7495;SDS011;3789;47.064;15.482;2023-08-06T01:58:41;2.10;;;1.70;;
7495;SDS011;3789;47.064;15.482;2023-08-06T02:01:10;1.93;;;1.70;;
7495;SDS011;3789;47.064;15.482;2023-08-06T02:03:43;2.10;;;1.93;;
7495;SDS011;3789;47.064;15.482;2023-08-06T02:06:12;1.50;;;1.40;;
7495;SDS011;3789;47.064;15.482;2023-08-06T02:08:44;2.17;;;1.60;;
7495;SDS011;3789;47.064;15.482;2023-08-06T02:11:12;1.90;;;1.50;;
7495;SDS011;3789;47.064;15.482;2023-08-06T02:13:40;1.60;;;1.50;;
7495;SDS011;3789;47.064;15.482;2023-08-06T02:16:12;3.63;;;1.50;;
7495;SDS011;3789;47.064;15.482;2023-08-06T02:18:43;1.40;;;1.30;;
7495;SDS011;3789;47.064;15.482;2023-08-06T02:21:18;3.10;;;1.50;;
7495;SDS011;3789;47.064;15.482;2023-08-06T02:23:55;1.23;;;1.13;;
7495;SDS011;3789;47.064;15.482;2023-08-06T02:26:27;2.47;;;1.20;;
7495;SDS011;3789;47.064;15.482;2023-08-06T02:29:04;1.83;;;1.30;;
7495;SDS011;3789;47.064;15.482;2023-08-06T02:31:33;2.97;;;1.30;;
7495;SDS011;3789;47.064;15.482;2023-08-06T02:34:02;1.42;;;1.33;;
7495;SDS011;3789;47.064;15.482;2023-08-06T02:36:33;1.40;;;1.30;;
7495;SDS011;3789;47.064;15.482;2023-08-06T02:39:06;2.40;;;1.40;;
7495;SDS011;3789;47.064;15.482;2023-08-06T02:41:34;2.17;;;1.50;;
7495;SDS011;3789;47.064;15.482;2023-08-06T02:44:03;1.40;;;1.30;;
7495;SDS011;3789;47.064;15.482;2023-08-06T02:46:35;1.60;;;1.50;;
7495;SDS011;3789;47.064;15.482;2023-08-06T02:49:09;4.33;;;1.70;;
7495;SDS011;3789;47.064;15.482;2023-08-06T02:51:38;2.72;;;1.50;;
7495;SDS011;3789;47.064;15.482;2023-08-06T02:54:07;1.73;;;1.63;;
7495;SDS011;3789;47.064;15.482;2023-08-06T02:56:36;2.43;;;1.83;;
7495;SDS011;3789;47.064;15.482;2023-08-06T02:59:10;2.10;;;1.90;;
7495;SDS011;3789;47.064;15.482;2023-08-06T03:01:49;1.70;;;1.60;;
7495;SDS011;3789;47.064;15.482;2023-08-06T03:04:20;1.83;;;1.73;;
7495;SDS011;3789;47.064;15.482;2023-08-06T03:06:51;1.60;;;1.50;;
7495;SDS011;3789;47.064;15.482;2023-08-06T03:09:20;2.10;;;1.80;;
7495;SDS011;3789;47.064;15.482;2023-08-06T03:11:49;1.90;;;1.80;;
7495;SDS011;3789;47.064;15.482;2023-08-06T03:14:25;2.20;;;2.00;;
7495;SDS011;3789;47.064;15.482;2023-08-06T03:16:54;2.37;;;2.10;;
7495;SDS011;3789;47.064;15.482;2023-08-06T03:19:25;2.20;;;2.00;;
7495;SDS011;3789;47.064;15.482;2023-08-06T03:21:55;3.85;;;2.40;;
7495;SDS011;3789;47.064;15.482;2023-08-06T03:24:25;4.15;;;2.60;;
7495;SDS011;3789;47.064;15.482;2023-08-06T03:26:56;2.37;;;2.20;;
7495;SDS011;3789;47.064;15.482;2023-08-06T03:29:25;2.33;;;2.13;;
7495;SDS011;3789;47.064;15.482;2023-08-06T03:31:56;2.33;;;2.13;;
7495;SDS011;3789;47.064;15.482;2023-08-06T03:34:24;3.57;;;2.10;;
7495;SDS011;3789;47.064;15.482;2023-08-06T03:36:56;2.60;;;2.40;;
7495;SDS011;3789;47.064;15.482;2023-08-06T03:39:27;2.50;;;2.30;;
7495;SDS011;3789;47.064;15.482;2023-08-06T03:42:03;2.95;;;2.75;;
7495;SDS011;3789;47.064;15.482;2023-08-06T03:44:31;3.53;;;3.00;;
7495;SDS011;3789;47.064;15.482;2023-08-06T03:47:03;3.67;;;3.20;;
7495;SDS011;3789;47.064;15.482;2023-08-06T03:49:32;3.60;;;3.30;;
7495;SDS011;3789;47.064;15.482;2023-08-06T03:52:02;3.40;;;3.10;;
7495;SDS011;3789;47.064;15.482;2023-08-06T03:54:33;3.93;;;3.37;;
7495;SDS011;3789;47.064;15.482;2023-08-06T03:57:05;3.43;;;3.20;;
7495;SDS011;3789;47.064;15.482;2023-08-06T03:59:34;3.50;;;3.17;;
7495;SDS011;3789;47.064;15.482;2023-08-06T04:02:05;3.10;;;2.90;;
7495;SDS011;3789;47.064;15.482;2023-08-06T04:04:36;3.63;;;3.27;;
7495;SDS011;3789;47.064;15.482;2023-08-06T04:07:13;3.37;;;2.93;;
7495;SDS011;3789;47.064;15.482;2023-08-06T04:10:00;3.10;;;2.77;;
7495;SDS011;3789;47.064;15.482;2023-08-06T04:12:31;13.60;;;3.67;;
7495;SDS011;3789;47.064;15.482;2023-08-06T04:15:04;3.70;;;2.80;;
7495;SDS011;3789;47.064;15.482;2023-08-06T04:17:34;2.70;;;2.50;;
7495;SDS011;3789;47.064;15.482;2023-08-06T04:20:13;2.50;;;2.30;;
7495;SDS011;3789;47.064;15.482;2023-08-06T04:22:42;2.60;;;2.40;;
7495;SDS011;3789;47.064;15.482;2023-08-06T04:25:19;3.53;;;2.50;;
7495;SDS011;3789;47.064;15.482;2023-08-06T04:27:52;4.00;;;2.80;;
7495;SDS011;3789;47.064;15.482;2023-08-06T04:30:27;2.70;;;2.50;;
7495;SDS011;3789;47.064;15.482;2023-08-06T04:33:01;2.73;;;2.53;;
7495;SDS011;3789;47.064;15.482;2023-08-06T04:35:32;3.37;;;3.13;;
7495;SDS011;3789;47.064;15.482;2023-08-06T04:38:09;3.83;;;3.53;;
7495;SDS011;3789;47.064;15.482;2023-08-06T04:40:40;4.13;;;3.73;;
7495;SDS011;3789;47.064;15.482;2023-08-06T04:43:09;4.63;;;4.23;;
7495;SDS011;3789;47.064;15.482;2023-08-06T04:45:53;5.67;;;5.17;;
7495;SDS011;3789;47.064;15.482;2023-08-06T04:48:23;6.63;;;5.40;;
7495;SDS011;3789;47.064;15.482;2023-08-06T04:50:55;13.47;;;5.03;;
7495;SDS011;3789;47.064;15.482;2023-08-06T04:53:31;30.97;;;6.43;;
7495;SDS011;3789;47.064;15.482;2023-08-06T04:56:01;19.70;;;5.30;;
7495;SDS011;3789;47.064;15.482;2023-08-06T04:58:41;7.47;;;4.73;;
7495;SDS011;3789;47.064;15.482;2023-08-06T05:01:16;73.47;;;10.27;;
7495;SDS011;3789;47.064;15.482;2023-08-06T05:03:44;5.70;;;5.20;;
7495;SDS011;3789;47.064;15.482;2023-08-06T05:06:18;5.23;;;4.73;;
7495;SDS011;3789;47.064;15.482;2023-08-06T05:08:56;5.23;;;4.73;;
7495;SDS011;3789;47.064;15.482;2023-08-06T05:11:32;7.50;;;4.97;;
7495;SDS011;3789;47.064;15.482;2023-08-06T05:14:01;5.90;;;5.40;;
7495;SDS011;3789;47.064;15.482;2023-08-06T05:16:32;6.37;;;5.70;;
7495;SDS011;3789;47.064;15.482;2023-08-06T05:19:03;5.97;;;5.40;;
7495;SDS011;3789;47.064;15.482;2023-08-06T05:21:33;5.37;;;4.87;;
7495;SDS011;3789;47.064;15.482;2023-08-06T05:24:11;6.23;;;5.23;;
7495;SDS011;3789;47.064;15.482;2023-08-06T05:26:41;6.80;;;6.07;;
7495;SDS011;3789;47.064;15.482;2023-08-06T05:29:16;6.07;;;5.57;;
7495;SDS011;3789;47.064;15.482;2023-08-06T05:31:45;6.97;;;5.70;;
7495;SDS011;3789;47.064;15.482;2023-08-06T05:34:17;6.53;;;6.03;;
7495;SDS011;3789;47.064;15.482;2023-08-06T05:36:45;6.80;;;6.20;;
7495;SDS011;3789;47.064;15.482;2023-08-06T05:39:16;6.40;;;5.88;;
7495;SDS011;3789;47.064;15.482;2023-08-06T05:41:50;7.17;;;6.23;;
7495;SDS011;3789;47.064;15.482;2023-08-06T05:44:27;6.63;;;6.10;;
7495;SDS011;3789;47.064;15.482;2023-08-06T05:46:56;8.20;;;6.50;;
7495;SDS011;3789;47.064;15.482;2023-08-06T05:49:25;9.97;;;6.63;;
7495;SDS011;3789;47.064;15.482;2023-08-06T05:51:55;6.33;;;5.83;;
7495;SDS011;3789;47.064;15.482;2023-08-06T05:54:24;6.53;;;5.93;;
7495;SDS011;3789;47.064;15.482;2023-08-06T05:56:56;6.20;;;5.70;;
7495;SDS011;3789;47.064;15.482;2023-08-06T05:59:25;6.10;;;5.53;;
7495;SDS011;3789;47.064;15.482;2023-08-06T06:01:55;5.77;;;5.17;;
7495;SDS011;3789;47.064;15.482;2023-08-06T06:04:25;6.07;;;5.50;;
7495;SDS011;3789;47.064;15.482;2023-08-06T06:06:52;5.67;;;5.17;;
7495;SDS011;3789;47.064;15.482;2023-08-06T06:09:23;5.80;;;5.30;;
7495;SDS011;3789;47.064;15.482;2023-08-06T06:11:52;5.83;;;5.33;;
7495;SDS011;3789;47.064;15.482;2023-08-06T06:14:32;5.60;;;5.10;;
7495;SDS011;3789;47.064;15.482;2023-08-06T06:17:04;5.80;;;5.20;;
7495;SDS011;3789;47.064;15.482;2023-08-06T06:19:41;4.60;;;4.30;;
7495;SDS011;3789;47.064;15.482;2023-08-06T06:22:17;5.10;;;4.23;;
7495;SDS011;3789;47.064;15.482;2023-08-06T06:24:53;4.13;;;3.70;;
7495;SDS011;3789;47.064;15.482;2023-08-06T06:27:21;3.63;;;3.33;;
7495;SDS011;3789;47.064;15.482;2023-08-06T06:29:50;3.60;;;3.30;;
7495;SDS011;3789;47.064;15.482;2023-08-06T06:32:20;4.22;;;3.08;;
7495;SDS011;3789;47.064;15.482;2023-08-06T06:34:54;3.90;;;3.17;;
7495;SDS011;3789;47.064;15.482;2023-08-06T06:37:30;4.03;;;3.63;;
7495;SDS011;3789;47.064;15.482;2023-08-06T06:40:02;4.00;;;3.70;;
7495;SDS011;3789;47.064;15.482;2023-08-06T06:42:32;3.60;;;3.30;;
7495;SDS011;3789;47.064;15.482;2023-08-06T06:45:04;4.30;;;4.00;;
7495;SDS011;3789;47.064;15.482;2023-08-06T06:47:47;3.17;;;2.97;;
7495;SDS011;3789;47.064;15.482;2023-08-06T06:50:16;4.20;;;3.90;;
7495;SDS011;3789;47.064;15.482;2023-08-06T06:52:44;4.00;;;3.70;;
7495;SDS011;3789;47.064;15.482;2023-08-06T06:55:24;4.88;;;4.47;;
7495;SDS011;3789;47.064;15.482;2023-08-06T06:57:56;4.13;;;3.80;;
7495;SDS011;3789;47.064;15.482;2023-08-06T07:00:26;4.53;;;4.23;;
7495;SDS011;3789;47.064;15.482;2023-08-06T07:02:55;4.30;;;4.00;;
7495;SDS011;3789;47.064;15.482;2023-08-06T07:05:24;4.00;;;3.70;;
7495;SDS011;3789;47.064;15.482;2023-08-06T07:07:55;4.30;;;3.90;;
7495;SDS011;3789;47.064;15.482;2023-08-06T07:10:25;4.03;;;3.73;;
7495;SDS011;3789;47.064;15.482;2023-08-06T07:13:16;5.28;;;4.70;;
7495;SDS011;3789;47.064;15.482;2023-08-06T07:15:44;5.10;;;4.70;;
7495;SDS011;3789;47.064;15.482;2023-08-06T07:18:14;5.28;;;4.78;;
7495;SDS011;3789;47.064;15.482;2023-08-06T07:20:47;5.43;;;4.68;;
7495;SDS011;3789;47.064;15.482;2023-08-06T07:23:22;5.07;;;4.63;;
7495;SDS011;3789;47.064;15.482;2023-08-06T07:25:58;4.68;;;4.28;;
7495;SDS011;3789;47.064;15.482;2023-08-06T07:28:38;5.57;;;4.95;;
7495;SDS011;3789;47.064;15.482;2023-08-06T07:31:06;4.97;;;4.40;;
7495;SDS011;3789;47.064;15.482;2023-08-06T07:33:36;4.95;;;4.55;;
7495;SDS011;3789;47.064;15.482;2023-08-06T07:36:11;4.90;;;4.50;;
7495;SDS011;3789;47.064;15.482;2023-08-06T07:38:45;5.28;;;4.30;;
7495;SDS011;3789;47.064;15.482;2023-08-06T07:41:20;4.50;;;4.10;;
7495;SDS011;3789;47.064;15.482;2023-08-06T07:43:57;4.70;;;4.30;;
7495;SDS011;3789;47.064;15.482;2023-08-06T07:46:30;4.07;;;3.50;;
7495;SDS011;3789;47.064;15.482;2023-08-06T07:49:00;3.55;;;3.25;;
7495;SDS011;3789;47.064;15.482;2023-08-06T07:51:29;3.22;;;2.97;;
7495;SDS011;3789;47.064;15.482;2023-08-06T07:53:59;3.22;;;3.03;;
7495;SDS011;3789;47.064;15.482;2023-08-06T07:56:31;2.83;;;2.63;;
7495;SDS011;3789;47.064;15.482;2023-08-06T07:59:01;2.80;;;2.60;;
7495;SDS011;3789;47.064;15.482;2023-08-06T08:01:32;2.85;;;2.65;;
7495;SDS011;3789;47.064;15.482;2023-08-06T08:04:05;3.90;;;2.30;;
7495;SDS011;3789;47.064;15.482;2023-08-06T08:06:42;2.22;;;2.03;;
7495;SDS011;3789;47.064;15.482;2023-08-06T08:09:18;1.80;;;1.70;;
7495;SDS011;3789;47.064;15.482;2023-08-06T08:11:51;2.38;;;1.90;;
7495;SDS011;3789;47.064;15.482;2023-08-06T08:14:24;1.60;;;1.50;;
7495;SDS011;3789;47.064;15.482;2023-08-06T08:16:53;2.42;;;1.73;;
7495;SDS011;3789;47.064;15.482;2023-08-06T08:19:23;1.90;;;1.80;;
7495;SDS011;3789;47.064;15.482;2023-08-06T08:21:54;2.30;;;2.10;;
7495;SDS011;3789;47.064;15.482;2023-08-06T08:24:29;2.53;;;1.60;;
7495;SDS011;3789;47.064;15.482;2023-08-06T08:27:02;2.03;;;1.83;;
7495;SDS011;3789;47.064;15.482;2023-08-06T08:29:32;3.90;;;1.80;;
7495;SDS011;3789;47.064;15.482;2023-08-06T08:32:08;2.25;;;2.03;;
7495;SDS011;3789;47.064;15.482;2023-08-06T08:34:38;1.80;;;1.70;;
7495;SDS011;3789;47.064;15.482;2023-08-06T08:37:10;5.88;;;2.03;;
7495;SDS011;3789;47.064;15.482;2023-08-06T08:39:47;2.22;;;2.03;;
7495;SDS011;3789;47.064;15.482;2023-08-06T08:42:18;2.25;;;2.03;;
7495;SDS011;3789;47.064;15.482;2023-08-06T08:44:49;2.42;;;2.22;;
7495;SDS011;3789;47.064;15.482;2023-08-06T08:47:20;2.92;;;2.25;;
7495;SDS011;3789;47.064;15.482;2023-08-06T08:49:55;2.38;;;2.17;;
7495;SDS011;3789;47.064;15.482;2023-08-06T08:52:27;2.60;;;2.40;;
7495;SDS011;3789;47.064;15.482;2023-08-06T08:55:07;4.22;;;3.03;;
7495;SDS011;3789;47.064;15.482;2023-08-06T08:57:37;3.65;;;2.97;;
7495;SDS011;3789;47.064;15.482;2023-08-06T09:00:13;2.67;;;2.47;;
7495;SDS011;3789;47.064;15.482;2023-08-06T09:02:54;3.60;;;2.80;;
7495;SDS011;3789;47.064;15.482;2023-08-06T09:05:28;2.80;;;2.60;;
7495;SDS011;3789;47.064;15.482;2023-08-06T09:08:02;2.40;;;2.05;;
7495;SDS011;3789;47.064;15.482;2023-08-06T09:10:36;2.78;;;2.58;;
7495;SDS011;3789;47.064;15.482;2023-08-06T09:13:07;2.72;;;2.40;;
7495;SDS011;3789;47.064;15.482;2023-08-06T09:15:37;2.95;;;2.60;;
7495;SDS011;3789;47.064;15.482;2023-08-06T09:18:09;2.72;;;2.53;;
7495;SDS011;3789;47.064;15.482;2023-08-06T09:20:40;2.95;;;2.70;;
7495;SDS011;3789;47.064;15.482;2023-08-06T09:23:11;3.13;;;2.83;;
7495;SDS011;3789;47.064;15.482;2023-08-06T09:25:39;2.80;;;2.60;;
7495;SDS011;3789;47.064;15.482;2023-08-06T09:28:15;2.92;;;2.72;;
7495;SDS011;3789;47.064;15.482;2023-08-06T09:30:46;3.13;;;2.92;;
7495;SDS011;3789;47.064;15.482;2023-08-06T09:33:25;2.80;;;2.60;;
7495;SDS011;3789;47.064;15.482;2023-08-06T09:35:57;3.15;;;2.70;;
7495;SDS011;3789;47.064;15.482;2023-08-06T09:38:41;2.50;;;2.30;;
7495;SDS011;3789;47.064;15.482;2023-08-06T09:41:29;2.70;;;2.50;;
7495;SDS011;3789;47.064;15.482;2023-08-06T09:43:59;2.70;;;2.50;;
7495;SDS011;3789;47.064;15.482;2023-08-06T09:46:28;2.70;;;2.50;;
7495;SDS011;3789;47.064;15.482;2023-08-06T09:49:08;2.72;;;2.03;;
7495;SDS011;3789;47.064;15.482;2023-08-06T09:51:37;2.35;;;2.15;;
7495;SDS011;3789;47.064;15.482;2023-08-06T09:54:13;2.53;;;2.33;;
7495;SDS011;3789;47.064;15.482;2023-08-06T09:56:54;3.63;;;2.13;;
7495;SDS011;3789;47.064;15.482;2023-08-06T09:59:25;2.50;;;2.30;;
7495;SDS011;3789;47.064;15.482;2023-08-06T10:01:55;3.03;;;1.98;;
7495;SDS011;3789;47.064;15.482;2023-08-06T10:04:27;2.80;;;2.20;;
7495;SDS011;3789;47.064;15.482;2023-08-06T10:07:07;2.15;;;2.03;;
7495;SDS011;3789;47.064;15.482;2023-08-06T10:09:40;2.08;;;1.88;;
7495;SDS011;3789;47.064;15.482;2023-08-06T10:12:10;3.55;;;2.15;;
7495;SDS011;3789;47.064;15.482;2023-08-06T10:14:46;2.67;;;2.47;;
7495;SDS011;3789;47.064;15.482;2023-08-06T10:17:28;2.20;;;2.10;;
7495;SDS011;3789;47.064;15.482;2023-08-06T10:20:18;3.83;;;2.28;;
7495;SDS011;3789;47.064;15.482;2023-08-06T10:23:05;1.90;;;1.80;;
7495;SDS011;3789;47.064;15.482;2023-08-06T10:25:41;1.98;;;1.60;;
7495;SDS011;3789;47.064;15.482;2023-08-06T10:28:12;1.92;;;1.80;;
7495;SDS011;3789;47.064;15.482;2023-08-06T10:30:49;3.38;;;1.75;;
7495;SDS011;3789;47.064;15.482;2023-08-06T10:33:19;2.28;;;1.52;;
7495;SDS011;3789;47.064;15.482;2023-08-06T10:35:56;2.35;;;1.40;;
7495;SDS011;3789;47.064;15.482;2023-08-06T10:38:57;1.40;;;1.30;;
7495;SDS011;3789;47.064;15.482;2023-08-06T10:41:39;1.42;;;1.33;;
7495;SDS011;3789;47.064;15.482;2023-08-06T10:44:12;1.30;;;1.10;;
7495;SDS011;3789;47.064;15.482;2023-08-06T10:46:53;2.80;;;1.10;;
7495;SDS011;3789;47.064;15.482;2023-08-06T10:49:23;2.28;;;1.10;;
7495;SDS011;3789;47.064;15.482;2023-08-06T10:51:54;0.88;;;0.88;;
7495;SDS011;3789;47.064;15.482;2023-08-06T10:54:25;1.17;;;1.08;;
7495;SDS011;3789;47.064;15.482;2023-08-06T10:56:53;1.58;;;0.95;;
7495;SDS011;3789;47.064;15.482;2023-08-06T10:59:25;1.27;;;1.17;;
7495;SDS011;3789;47.064;15.482;2023-08-06T11:02:00;1.20;;;1.10;;
7495;SDS011;3789;47.064;15.482;2023-08-06T11:04:32;1.00;;;1.00;;
7495;SDS011;3789;47.064;15.482;2023-08-06T11:07:03;1.40;;;1.10;;
7495;SDS011;3789;47.064;15.482;2023-08-06T11:09:49;1.40;;;1.30;;
7495;SDS011;3789;47.064;15.482;2023-08-06T11:12:23;1.50;;;1.40;;
7495;SDS011;3789;47.064;15.482;2023-08-06T11:14:59;1.45;;;1.20;;
7495;SDS011;3789;47.064;15.482;2023-08-06T11:17:40;1.40;;;1.30;;
7495;SDS011;3789;47.064;15.482;2023-08-06T11:20:31;1.40;;;1.30;;
7495;SDS011;3789;47.064;15.482;2023-08-06T11:23:05;1.00;;;1.00;;
7495;SDS011;3789;47.064;15.482;2023-08-06T11:25:37;1.25;;;1.15;;
7495;SDS011;3789;47.064;15.482;2023-08-06T11:28:15;1.20;;;1.10;;
7495;SDS011;3789;47.064;15.482;2023-08-06T11:31:22;1.50;;;1.38;;
7495;SDS011;3789;47.064;15.482;2023-08-06T11:33:53;1.27;;;1.15;;
7495;SDS011;3789;47.064;15.482;2023-08-06T11:36:33;1.88;;;1.10;;
7495;SDS011;3789;47.064;15.482;2023-08-06T11:39:11;1.30;;;1.20;;
7495;SDS011;3789;47.064;15.482;2023-08-06T11:41:43;1.58;;;1.40;;
7495;SDS011;3789;47.064;15.482;2023-08-06T11:44:21;2.15;;;1.30;;
7495;SDS011;3789;47.064;15.482;2023-08-06T11:46:55;1.35;;;1.17;;
7495;SDS011;3789;47.064;15.482;2023-08-06T11:52:20;1.45;;;1.30;;
7495;SDS011;3789;47.064;15.482;2023-08-06T11:55:07;1.48;;;1.38;;
7495;SDS011;3789;47.064;15.482;2023-08-06T11:57:46;1.70;;;1.35;;
7495;SDS011;3789;47.064;15.482;2023-08-06T12:00:17;1.98;;;1.38;;
7495;SDS011;3789;47.064;15.482;2023-08-06T12:02:49;1.42;;;1.25;;
7495;SDS011;3789;47.064;15.482;2023-08-06T12:05:28;1.30;;;1.20;;
7495;SDS011;3789;47.064;15.482;2023-08-06T12:08:01;1.80;;;1.27;;
7495;SDS011;3789;47.064;15.482;2023-08-06T12:10:40;2.28;;;1.33;;
7495;SDS011;3789;47.064;15.482;2023-08-06T12:13:17;1.25;;;1.15;;
7495;SDS011;3789;47.064;15.482;2023-08-06T12:16:13;3.03;;;1.40;;
7495;SDS011;3789;47.064;15.482;2023-08-06T12:18:42;2.10;;;1.05;;
7495;SDS011;3789;47.064;15.482;2023-08-06T12:21:16;2.05;;;1.15;;
7495;SDS011;3789;47.064;15.482;2023-08-06T12:23:46;1.27;;;1.17;;
7495;SDS011;3789;47.064;15.482;2023-08-06T12:26:17;1.15;;;1.05;;
7495;SDS011;3789;47.064;15.482;2023-08-06T12:28:46;1.48;;;1.30;;
7495;SDS011;3789;47.064;15.482;2023-08-06T12:31:17;2.55;;;1.20;;
7495;SDS011;3789;47.064;15.482;2023-08-06T12:33:46;2.72;;;1.15;;
7495;SDS011;3789;47.064;15.482;2023-08-06T12:36:17;1.17;;;1.08;;
7495;SDS011;3789;47.064;15.482;2023-08-06T12:38:58;1.20;;;1.10;;
7495;SDS011;3789;47.064;15.482;2023-08-06T12:41:29;0.90;;;0.90;;
7495;SDS011;3789;47.064;15.482;2023-08-06T12:44:02;1.20;;;1.10;;
7495;SDS011;3789;47.064;15.482;2023-08-06T12:46:32;1.23;;;1.02;;
7495;SDS011;3789;47.064;15.482;2023-08-06T12:49:04;1.38;;;1.15;;
7495;SDS011;3789;47.064;15.482;2023-08-06T12:51:34;1.23;;;0.85;;
7495;SDS011;3789;47.064;15.482;2023-08-06T12:54:04;0.70;;;0.70;;
7495;SDS011;3789;47.064;15.482;2023-08-06T12:56:40;1.10;;;1.00;;
7495;SDS011;3789;47.064;15.482;2023-08-06T12:59:15;1.00;;;0.90;;
7495;SDS011;3789;47.064;15.482;2023-08-06T13:01:45;0.82;;;0.80;;
7495;SDS011;3789;47.064;15.482;2023-08-06T13:04:17;1.10;;;1.00;;
7495;SDS011;3789;47.064;15.482;2023-08-06T13:06:50;0.73;;;0.73;;
7495;SDS011;3789;47.064;15.482;2023-08-06T13:09:17;1.35;;;0.90;;
7495;SDS011;3789;47.064;15.482;2023-08-06T13:12:01;0.93;;;0.85;;
7495;SDS011;3789;47.064;15.482;2023-08-06T13:14:32;0.80;;;0.80;;
7495;SDS011;3789;47.064;15.482;2023-08-06T13:17:14;1.00;;;0.90;;
7495;SDS011;3789;47.064;15.482;2023-08-06T13:19:51;0.80;;;0.70;;
7495;SDS011;3789;47.064;15.482;2023-08-06T13:22:22;0.95;;;0.80;;
7495;SDS011;3789;47.064;15.482;2023-08-06T13:24:58;0.70;;;0.70;;
7495;SDS011;3789;47.064;15.482;2023-08-06T13:27:29;2.28;;;0.90;;
7495;SDS011;3789;47.064;15.482;2023-08-06T13:29:57;0.90;;;0.90;;
7495;SDS011;3789;47.064;15.482;2023-08-06T13:32:26;0.90;;;0.70;;
7495;SDS011;3789;47.064;15.482;2023-08-06T13:34:55;0.85;;;0.75;;
7495;SDS011;3789;47.064;15.482;2023-08-06T13:37:24;0.98;;;0.77;;
7495;SDS011;3789;47.064;15.482;2023-08-06T13:39:52;0.70;;;0.70;;
7495;SDS011;3789;47.064;15.482;2023-08-06T13:42:23;0.80;;;0.80;;
7495;SDS011;3789;47.064;15.482;2023-08-06T13:44:53;0.80;;;0.80;;
7495;SDS011;3789;47.064;15.482;2023-08-06T13:47:31;0.90;;;0.90;;
7495;SDS011;3789;47.064;15.482;2023-08-06T13:50:09;0.90;;;0.80;;
7495;SDS011;3789;47.064;15.482;2023-08-06T13:52:37;0.80;;;0.80;;
7495;SDS011;3789;47.064;15.482;2023-08-06T13:55:07;0.88;;;0.80;;
7495;SDS011;3789;47.064;15.482;2023-08-06T13:57:36;0.90;;;0.82;;
7495;SDS011;3789;47.064;15.482;2023-08-06T14:00:12;2.10;;;1.20;;
7495;SDS011;3789;47.064;15.482;2023-08-06T14:02:47;7.05;;;2.78;;
7495;SDS011;3789;47.064;15.482;2023-08-06T14:05:17;5.75;;;2.38;;
7495;SDS011;3789;47.064;15.482;2023-08-06T14:07:46;3.45;;;1.90;;
7495;SDS011;3789;47.064;15.482;2023-08-06T14:10:23;4.55;;;1.70;;
7495;SDS011;3789;47.064;15.482;2023-08-06T14:13:02;4.32;;;1.58;;
7495;SDS011;3789;47.064;15.482;2023-08-06T14:15:39;5.65;;;2.30;;
7495;SDS011;3789;47.064;15.482;2023-08-06T14:18:18;8.68;;;3.90;;
7495;SDS011;3789;47.064;15.482;2023-08-06T14:20:48;1.67;;;1.20;;
7495;SDS011;3789;47.064;15.482;2023-08-06T14:23:19;2.70;;;1.00;;
7495;SDS011;3789;47.064;15.482;2023-08-06T14:25:54;3.70;;;0.80;;
7495;SDS011;3789;47.064;15.482;2023-08-06T14:28:23;0.80;;;0.80;;
7495;SDS011;3789;47.064;15.482;2023-08-06T14:30:51;1.48;;;0.85;;
7495;SDS011;3789;47.064;15.482;2023-08-06T14:33:25;0.75;;;0.75;;
7495;SDS011;3789;47.064;15.482;2023-08-06T14:35:54;0.70;;;0.70;;
7495;SDS011;3789;47.064;15.482;2023-08-06T14:38:25;2.95;;;0.88;;
7495;SDS011;3789;47.064;15.482;2023-08-06T14:40:55;1.17;;;0.90;;
7495;SDS011;3789;47.064;15.482;2023-08-06T14:43:34;1.38;;;0.93;;
7495;SDS011;3789;47.064;15.482;2023-08-06T14:46:14;0.82;;;0.80;;
7495;SDS011;3789;47.064;15.482;2023-08-06T14:48:43;0.80;;;0.80;;
7495;SDS011;3789;47.064;15.482;2023-08-06T14:51:12;1.13;;;0.70;;
7495;SDS011;3789;47.064;15.482;2023-08-06T14:53:41;0.80;;;0.80;;
7495;SDS011;3789;47.064;15.482;2023-08-06T14:56:10;0.65;;;0.60;;
7495;SDS011;3789;47.064;15.482;2023-08-06T14:58:46;0.82;;;0.82;;
7495;SDS011;3789;47.064;15.482;2023-08-06T15:01:16;1.15;;;1.00;;
7495;SDS011;3789;47.064;15.482;2023-08-06T15:03:45;0.80;;;0.70;;
7495;SDS011;3789;47.064;15.482;2023-08-06T15:06:14;0.70;;;0.70;;
7495;SDS011;3789;47.064;15.482;2023-08-06T15:08:45;1.00;;;0.65;;
7495;SDS011;3789;47.064;15.482;2023-08-06T15:11:23;0.80;;;0.70;;
7495;SDS011;3789;47.064;15.482;2023-08-06T15:13:56;0.50;;;0.50;;
7495;SDS011;3789;47.064;15.482;2023-08-06T15:16:25;0.55;;;0.55;;
7495;SDS011;3789;47.064;15.482;2023-08-06T15:18:55;0.63;;;0.50;;
7495;SDS011;3789;47.064;15.482;2023-08-06T15:21:25;0.32;;;0.32;;
7495;SDS011;3789;47.064;15.482;2023-08-06T15:23:55;0.40;;;0.40;;
7495;SDS011;3789;47.064;15.482;2023-08-06T15:26:33;0.85;;;0.60;;
7495;SDS011;3789;47.064;15.482;2023-08-06T15:29:04;0.40;;;0.40;;
7495;SDS011;3789;47.064;15.482;2023-08-06T15:31:38;0.40;;;0.40;;
7495;SDS011;3789;47.064;15.482;2023-08-06T15:34:08;0.47;;;0.47;;
7495;SDS011;3789;47.064;15.482;2023-08-06T15:36:36;0.75;;;0.40;;
7495;SDS011;3789;47.064;15.482;2023-08-06T15:39:06;0.50;;;0.50;;
7495;SDS011;3789;47.064;15.482;2023-08-06T15:41:36;0.50;;;0.50;;
7495;SDS011;3789;47.064;15.482;2023-08-06T15:44:03;0.50;;;0.50;;
7495;SDS011;3789;47.064;15.482;2023-08-06T15:46:36;0.30;;;0.30;;